createdAt,value
2023-05-24T00:00:42.995Z,3.80
2023-05-24T00:05:46.845Z,3.60
2023-05-24T00:10:48.610Z,3.50
2023-05-24T00:15:50.507Z,3.80
2023-05-24T00:20:53.385Z,3.65
2023-05-24T00:25:55.055Z,3.50
2023-05-24T00:30:57.451Z,4.07
2023-05-24T00:35:59.059Z,3.60
2023-05-24T00:41:01.450Z,3.50
2023-05-24T00:46:15.481Z,3.53
2023-05-24T00:51:17.412Z,2.85
2023-05-24T00:56:19.488Z,3.80
2023-05-24T01:01:21.244Z,3.33
2023-05-24T01:06:24.067Z,3.13
2023-05-24T01:11:31.592Z,2.97
2023-05-24T01:17:02.061Z,3.22
2023-05-24T01:22:18.230Z,2.95
2023-05-24T01:27:22.999Z,3.38
2023-05-24T01:32:25.978Z,3.42
2023-05-24T01:37:27.684Z,3.38
2023-05-24T01:42:39.461Z,2.80
2023-05-24T01:47:53.727Z,3.17
2023-05-24T01:52:59.093Z,2.70
2023-05-24T01:58:03.471Z,3.30
2023-05-24T02:03:05.427Z,3.10
2023-05-24T02:08:07.282Z,3.10
2023-05-24T02:13:09.207Z,3.53
2023-05-24T02:18:11.366Z,3.85
2023-05-24T02:23:13.070Z,2.63
2023-05-24T02:28:14.834Z,2.97
2023-05-24T02:33:16.573Z,2.97
2023-05-24T02:38:18.297Z,2.50
2023-05-24T02:43:20.038Z,2.95
2023-05-24T02:48:21.685Z,2.72
2023-05-24T02:53:23.288Z,3.50
2023-05-24T02:58:29.005Z,2.97
2023-05-24T03:03:30.999Z,2.60
2023-05-24T03:08:37.406Z,2.90
2023-05-24T03:13:40.222Z,2.55
2023-05-24T03:18:42.065Z,2.67
2023-05-24T03:23:43.756Z,2.90
2023-05-24T03:28:45.530Z,3.20
2023-05-24T03:33:47.608Z,3.45
2023-05-24T03:38:49.333Z,2.75
2023-05-24T03:43:52.655Z,3.10
2023-05-24T03:48:55.595Z,2.53
2023-05-24T03:53:57.558Z,3.20
2023-05-24T03:59:03.913Z,3.08
2023-05-24T04:04:05.722Z,2.63
2023-05-24T04:09:07.648Z,2.90
2023-05-24T04:14:09.322Z,2.55
2023-05-24T04:19:11.463Z,3.00
2023-05-24T04:24:13.314Z,2.97
2023-05-24T04:29:15.013Z,2.50
2023-05-24T04:34:16.723Z,2.92
2023-05-24T04:39:18.923Z,3.33
2023-05-24T04:44:20.644Z,3.25
2023-05-24T04:49:22.687Z,3.03
2023-05-24T04:54:24.741Z,2.78
2023-05-24T04:59:26.449Z,2.88
2023-05-24T05:04:28.091Z,3.30
2023-05-24T05:09:29.760Z,3.05
2023-05-24T05:14:31.393Z,3.30
2023-05-24T05:19:33.032Z,2.88
2023-05-24T05:24:34.887Z,3.03
2023-05-24T05:29:36.553Z,3.05
2023-05-24T05:34:38.222Z,3.13
2023-05-24T05:39:39.803Z,3.70
2023-05-24T05:44:41.445Z,2.67
2023-05-24T05:49:43.065Z,3.45
2023-05-24T05:54:44.757Z,3.55
2023-05-24T05:59:46.424Z,3.28
2023-05-24T06:04:48.350Z,3.03
2023-05-24T06:09:50.022Z,2.72
2023-05-24T06:14:52.352Z,3.10
2023-05-24T06:19:54.122Z,3.33
2023-05-24T06:24:55.833Z,3.50
2023-05-24T06:29:57.487Z,3.38
2023-05-24T06:34:59.191Z,3.30
2023-05-24T06:40:01.008Z,3.28
2023-05-24T06:45:03.131Z,3.15
2023-05-24T06:50:05.632Z,3.28
2023-05-24T06:55:07.674Z,3.58
2023-05-24T07:00:12.873Z,3.53
2023-05-24T07:05:14.720Z,3.38
2023-05-24T07:10:16.838Z,3.70
2023-05-24T07:15:18.505Z,3.60
2023-05-24T07:20:20.230Z,3.90
2023-05-24T07:25:23.032Z,3.50
2023-05-24T07:35:33.853Z,3.97
2023-05-24T07:40:35.559Z,3.63
2023-05-24T07:45:37.403Z,3.78
2023-05-24T07:50:39.028Z,3.10
2023-05-24T07:55:41.058Z,3.25
2023-05-24T08:00:42.949Z,3.30
2023-05-24T08:05:44.873Z,3.78
2023-05-24T08:10:46.834Z,3.95
2023-05-24T08:15:48.515Z,4.05
2023-05-24T08:20:50.198Z,3.33
2023-05-24T08:25:51.979Z,3.50
2023-05-24T08:30:53.667Z,3.50
2023-05-24T08:35:55.352Z,3.72
2023-05-24T08:40:57.481Z,4.13
2023-05-24T08:45:59.556Z,3.60
2023-05-24T08:51:01.348Z,3.63
2023-05-24T08:56:03.747Z,3.90
2023-05-24T09:01:07.435Z,4.03
2023-05-24T09:06:09.827Z,3.60
2023-05-24T09:11:11.749Z,4.15
2023-05-24T09:16:15.182Z,4.07
2023-05-24T09:21:17.656Z,4.05
2023-05-24T09:26:19.281Z,3.70
2023-05-24T09:31:32.529Z,4.20
2023-05-24T09:36:34.273Z,4.30
2023-05-24T09:41:37.265Z,3.53
2023-05-24T09:46:39.171Z,4.28
2023-05-24T09:51:40.819Z,3.58
2023-05-24T09:56:42.494Z,3.80
2023-05-24T10:01:44.700Z,3.80
2023-05-24T10:06:48.107Z,4.50
2023-05-24T10:11:50.097Z,4.70
2023-05-24T10:16:52.670Z,3.92
2023-05-24T10:21:55.763Z,3.97
2023-05-24T10:26:58.817Z,4.38
2023-05-24T10:32:00.929Z,3.80
2023-05-24T10:37:03.036Z,4.00
2023-05-24T10:42:09.390Z,3.90
2023-05-24T10:47:16.923Z,3.83
2023-05-24T10:52:19.011Z,3.55
2023-05-24T10:57:24.397Z,3.67
2023-05-24T11:02:35.706Z,3.60
2023-05-24T11:07:43.078Z,4.10
2023-05-24T11:12:45.124Z,3.72
2023-05-24T11:18:14.495Z,3.40
2023-05-24T11:23:17.176Z,4.20
2023-05-24T11:28:19.182Z,3.83
2023-05-24T11:33:25.512Z,4.35
2023-05-24T11:38:29.546Z,3.63
2023-05-24T11:43:31.581Z,3.85
2023-05-24T11:48:33.343Z,4.00
2023-05-24T11:53:35.019Z,4.53
2023-05-24T11:58:45.786Z,4.00
2023-05-24T12:03:47.552Z,4.35
2023-05-24T12:08:49.832Z,3.97
2023-05-24T12:13:51.444Z,4.82
2023-05-24T12:19:05.212Z,5.15
2023-05-24T12:24:12.630Z,4.32
2023-05-24T12:29:14.909Z,3.72
2023-05-24T12:34:20.554Z,3.67
2023-05-24T12:39:31.948Z,4.70
2023-05-24T12:44:37.605Z,4.03
2023-05-24T12:49:39.324Z,5.15
2023-05-24T12:54:41.073Z,4.35
2023-05-24T12:59:42.880Z,3.67
2023-05-24T13:04:44.562Z,4.03
2023-05-24T13:09:46.255Z,3.90
2023-05-24T13:14:49.124Z,4.28
2023-05-24T13:19:51.851Z,4.18
2023-05-24T13:24:53.952Z,3.90
2023-05-24T13:35:01.172Z,4.85
2023-05-24T13:40:04.241Z,4.03
2023-05-24T13:45:06.664Z,4.20
2023-05-24T13:50:08.724Z,4.03
2023-05-24T13:55:10.550Z,4.38
2023-05-24T14:00:12.864Z,4.72
2023-05-24T14:05:26.627Z,4.03
2023-05-24T14:10:29.715Z,4.38
2023-05-24T14:15:31.822Z,4.47
2023-05-24T14:20:38.163Z,4.00
2023-05-24T14:25:41.463Z,4.13
2023-05-24T14:30:43.619Z,3.72
2023-05-24T14:35:46.493Z,4.00
2023-05-24T14:40:48.701Z,4.22
2023-05-24T14:45:50.473Z,4.13
2023-05-24T14:50:52.414Z,4.18
2023-05-24T14:55:54.406Z,3.80
2023-05-24T15:00:56.154Z,3.80
2023-05-24T15:05:57.942Z,4.65
2023-05-24T15:10:59.595Z,3.95
2023-05-24T15:16:01.272Z,3.60
2023-05-24T15:21:03.227Z,4.20
2023-05-24T15:26:04.978Z,3.70
2023-05-24T15:31:06.873Z,3.65
2023-05-24T15:36:08.778Z,3.72
2023-05-24T15:41:10.510Z,3.40
2023-05-24T15:46:12.250Z,3.72
2023-05-24T15:56:18.461Z,3.38
2023-05-24T16:01:20.372Z,3.65
2023-05-24T16:06:22.082Z,3.75
2023-05-24T16:11:23.713Z,3.42
2023-05-24T16:16:26.323Z,3.65
2023-05-24T16:21:28.851Z,4.18
2023-05-24T16:26:33.392Z,3.78
2023-05-24T16:31:35.124Z,3.75
2023-05-24T16:36:36.926Z,3.60
2023-05-24T16:41:40.220Z,3.70
2023-05-24T16:46:41.997Z,2.95
2023-05-24T16:51:43.672Z,3.00
2023-05-24T16:56:46.181Z,3.55
2023-05-24T17:01:50.577Z,3.30
2023-05-24T17:06:52.237Z,3.22
2023-05-24T17:11:53.934Z,3.20
2023-05-24T17:16:55.628Z,2.88
2023-05-24T17:21:57.372Z,3.40
2023-05-24T17:26:59.224Z,3.22
2023-05-24T17:32:01.201Z,3.25
2023-05-24T17:37:03.006Z,2.85
2023-05-24T17:42:05.432Z,2.88
2023-05-24T17:47:07.068Z,3.13
2023-05-24T17:52:08.875Z,3.28
2023-05-24T17:57:10.689Z,2.75
2023-05-24T18:02:12.337Z,3.13
2023-05-24T18:07:15.011Z,3.13
2023-05-24T18:12:16.667Z,3.03
2023-05-24T18:17:18.444Z,3.38
2023-05-24T18:22:20.140Z,3.20
2023-05-24T18:27:21.846Z,3.50
2023-05-24T18:32:23.517Z,3.75
2023-05-24T18:37:25.131Z,3.50
2023-05-24T18:42:26.811Z,2.92
2023-05-24T18:47:31.025Z,3.25
2023-05-24T18:52:32.719Z,3.33
2023-05-24T18:57:34.463Z,3.40
2023-05-24T19:02:38.877Z,3.75
2023-05-24T19:07:41.684Z,3.55
2023-05-24T19:12:43.420Z,3.65
2023-05-24T19:17:45.054Z,4.10
2023-05-24T19:22:46.726Z,3.72
2023-05-24T19:32:55.705Z,3.47
2023-05-24T19:37:57.492Z,3.50
2023-05-24T19:42:59.703Z,4.00
2023-05-24T19:48:01.654Z,4.00
2023-05-24T19:53:03.268Z,4.15
2023-05-24T19:58:04.965Z,3.60
2023-05-24T20:03:06.819Z,4.00
2023-05-24T20:08:08.531Z,4.03
2023-05-24T20:13:10.921Z,4.00
2023-05-24T20:18:12.572Z,4.60
2023-05-24T20:23:14.253Z,3.60
2023-05-24T20:28:29.535Z,4.45
2023-05-24T20:33:33.465Z,4.03
2023-05-24T20:38:35.754Z,4.25
2023-05-24T20:43:37.582Z,4.47
2023-05-24T20:48:39.750Z,4.13
2023-05-24T20:53:41.406Z,4.75
2023-05-24T20:58:44.566Z,4.28
2023-05-24T21:03:46.318Z,4.20
2023-05-24T21:08:47.990Z,4.75
2023-05-24T21:13:49.644Z,4.07
2023-05-24T21:18:54.188Z,4.90
2023-05-24T21:23:56.686Z,4.60
2023-05-24T21:28:58.410Z,4.60
2023-05-24T21:34:00.150Z,4.38
2023-05-24T21:39:07.376Z,4.20
2023-05-24T21:44:09.243Z,4.32
2023-05-24T21:49:10.908Z,4.82
2023-05-24T21:54:12.641Z,3.75
2023-05-24T21:59:14.870Z,4.00
2023-05-24T22:04:16.699Z,3.83
2023-05-24T22:09:18.432Z,4.50
2023-05-24T22:14:20.119Z,4.07
2023-05-24T22:19:32.089Z,4.10
2023-05-24T22:24:40.999Z,4.30
2023-05-24T22:29:43.364Z,3.80
2023-05-24T22:34:45.144Z,4.10
2023-05-24T22:39:46.729Z,4.38
2023-05-24T22:44:48.376Z,4.60
2023-05-24T22:49:55.908Z,4.20
2023-05-24T22:54:57.593Z,4.28
2023-05-24T22:59:59.199Z,4.53
2023-05-24T23:05:01.480Z,4.43
2023-05-24T23:10:03.487Z,4.90
2023-05-24T23:15:06.493Z,5.10
2023-05-24T23:20:10.070Z,5.40
2023-05-24T23:25:11.752Z,5.82
2023-05-24T23:30:13.514Z,6.38
2023-05-24T23:35:15.222Z,6.05
2023-05-24T23:40:17.038Z,6.45
2023-05-24T23:45:18.700Z,5.38
2023-05-24T23:50:22.493Z,5.63
2023-05-24T23:55:24.449Z,4.65
